Latest Weather Observations for Low Head

IDT60801

Issued at 9:31 pm EST Thursday 29 September 2016 (issued every 30 minutes, with the page automatically refreshed every 10 minutes)

About weather observations | Map of weather stations | Latest weather observations for TAS | Other Formats
Station Details ID: 091293 Name: LOW HEAD Lat: -41.05 Lon: 146.79 Height: 3.0 m
Data from the previous 72 hours. | See also: Recent months at Low Head
Date/Time
EST
Temp
°C
App
Temp
°C
Dew
Point
°C
Rel
Hum
%
Delta-T
°C
Wind Press
QNH
hPa
Press
MSL
hPa
Rain since
9am
mm
Dir  Spd
km/h
Gust
km/h
Spd
kts
Gust
kts
29/09:30pm 10.9 9.4 9.3 90 0.8 WNW 7 9 4 5 992.0 992.0 -
29/09:00pm 11.0 9.2 9.4 90 0.8 NW 9 13 5 7 992.2 992.2 -
29/08:30pm 11.0 8.8 9.4 90 0.8 WNW 11 13 6 7 992.2 992.2 -
29/08:00pm 10.8 8.2 9.4 91 0.7 WNW 13 15 7 8 992.0 992.0 -
29/07:30pm 11.0 8.1 9.8 92 0.6 W 15 20 8 11 991.3 991.3 -
29/07:00pm 11.2 7.5 10.1 93 0.6 WSW 20 24 11 13 990.4 990.4 -
29/06:30pm 10.7 5.3 9.6 93 0.6 W 28 32 15 17 990.7 990.7 -
29/06:00pm 11.0 4.8 10.1 94 0.5 WNW 33 37 18 20 990.1 990.1 43.8
29/05:30pm 11.1 4.1 10.0 93 0.6 NW 37 43 20 23 989.4 989.4 42.0
29/05:15pm 10.9 3.2 10.0 94 0.5 WNW 41 59 22 32 988.9 988.9 40.6
29/05:04pm 11.3 7.3 10.4 94 0.5 NNW 22 54 12 29 988.4 988.4 39.8
29/05:00pm 12.3 10.3 11.4 94 0.5 N 13 19 7 10 988.1 988.1 39.6
29/04:30pm 12.0 8.6 11.2 95 0.4 ENE 20 26 11 14 987.8 987.8 38.0
29/04:00pm 11.4 7.8 10.6 95 0.4 ENE 20 24 11 13 987.6 987.6 36.2
29/03:30pm 12.1 6.2 11.3 95 0.4 NE 33 37 18 20 987.4 987.4 34.0
29/03:01pm 12.9 3.1 11.5 91 0.7 ENE 54 72 29 39 988.3 988.3 28.8
29/03:00pm 12.9 2.7 11.5 91 0.8 ENE 56 72 30 39 988.3 988.3 28.8
29/02:30pm 12.9 2.9 12.0 94 0.5 ENE 56 70 30 38 988.3 988.3 19.2
29/02:04pm 13.0 4.2 12.1 94 0.5 ENE 50 74 27 40 988.7 988.7 14.8
29/02:00pm 13.1 5.1 12.3 95 0.4 ENE 46 61 25 33 988.6 988.6 14.4
29/01:45pm 13.2 6.5 12.4 95 0.4 E 39 61 21 33 988.9 988.9 12.0
29/01:30pm 13.1 5.5 12.3 95 0.4 ENE 44 52 24 28 989.4 989.4 10.6
29/01:00pm 13.2 3.7 12.4 95 0.4 NE 54 63 29 34 990.2 990.2 7.8
29/12:30pm 13.3 5.2 11.9 91 0.7 NE 46 54 25 29 990.6 990.6 5.0
29/12:20pm 13.3 7.4 12.4 94 0.5 NE 35 54 19 29 990.9 990.9 4.4
29/12:00pm 13.4 7.5 12.5 94 0.5 NE 35 41 19 22 991.1 991.1 3.4
29/11:30am 13.7 7.0 12.4 92 0.7 NE 39 46 21 25 991.3 991.3 2.8
29/11:00am 13.6 8.1 12.5 93 0.6 NE 33 39 18 21 991.8 991.8 1.6
29/10:30am 13.8 7.2 12.5 92 0.7 ENE 39 44 21 24 992.1 992.1 0.8
29/10:00am 14.2 6.6 12.4 89 1.0 ENE 44 52 24 28 992.4 992.4 0.6
29/09:44am 14.4 5.9 12.1 86 1.2 ENE 48 69 26 37 992.6 992.6 0.4
29/09:30am 14.3 5.9 12.3 88 1.1 ENE 48 61 26 33 992.9 992.9 0.2
29/09:00am 14.7 6.5 11.8 83 1.6 ENE 46 59 25 32 993.2 993.2 0.0
29/08:30am 14.6 6.0 11.7 83 1.6 ENE 48 65 26 35 993.7 993.7 0.0
29/08:00am 14.6 6.7 11.4 81 1.7 ENE 44 57 24 31 993.9 993.9 0.0
29/07:30am 14.6 6.3 11.4 81 1.7 ENE 46 57 25 31 994.4 994.4 0.0
29/07:11am 14.5 6.2 11.5 82 1.6 ENE 46 65 25 35 994.5 994.5 0.0
29/07:00am 14.4 5.3 11.2 81 1.7 ENE 50 59 27 32 994.4 994.4 0.0
29/06:30am 14.3 5.6 11.3 82 1.6 ENE 48 59 26 32 994.7 994.7 0.0
29/06:00am 14.1 5.3 10.9 81 1.7 E 48 59 26 32 995.1 995.1 0.0
29/05:30am 14.0 5.9 10.8 81 1.7 E 44 59 24 32 995.7 995.7 0.0
29/05:00am 13.8 5.5 10.2 79 1.9 E 44 61 24 33 996.1 996.1 0.0
29/04:30am 13.7 5.4 10.1 79 1.9 E 44 56 24 30 996.5 996.5 0.0
29/04:00am 13.6 5.5 10.0 79 1.9 E 43 54 23 29 997.0 997.0 0.0
29/03:30am 13.4 5.7 10.2 81 1.7 E 41 50 22 27 997.9 997.9 0.0
29/03:00am 13.3 5.2 9.9 80 1.8 E 43 54 23 29 998.5 998.5 0.0
29/02:30am 12.8 5.8 10.0 83 1.4 E 37 44 20 24 998.9 998.9 0.0
29/02:00am 12.6 5.6 9.8 83 1.4 E 37 44 20 24 999.5 999.5 0.0
29/01:30am 12.2 6.4 9.4 83 1.4 E 30 35 16 19 1000.6 1000.6 0.0
29/01:00am 11.9 6.7 8.9 82 1.5 E 26 37 14 20 1001.7 1001.7 0.0
29/12:30am 11.7 6.9 8.7 82 1.5 E 24 32 13 17 1002.1 1002.1 0.0
29/12:00am 11.4 6.5 8.6 83 1.4 E 24 32 13 17 1002.7 1002.7 0.0
 
Date/Time
EST
Temp
°C
App
Temp
°C
Dew
Point
°C
Rel
Hum
%
Delta-T
°C
Wind Press
QNH
hPa
Press
MSL
hPa
Rain since
9am
mm
Dir  Spd
km/h
Gust
km/h
Spd
kts
Gust
kts
28/11:30pm 11.0 6.9 8.6 85 1.2 ESE 20 28 11 15 1003.2 1003.2 0.0
28/11:00pm 10.7 7.3 9.0 89 0.8 ESE 17 22 9 12 1003.6 1003.6 0.0
28/10:30pm 10.8 7.4 9.2 90 0.8 ESE 17 24 9 13 1004.0 1004.0 0.0
28/10:00pm 10.8 7.4 9.2 90 0.8 ESE 17 22 9 12 1004.4 1004.4 0.0
28/09:30pm 10.7 7.7 9.1 90 0.8 ESE 15 19 8 10 1004.6 1004.6 0.0
28/09:00pm 10.7 8.0 9.0 89 0.8 ESE 13 19 7 10 1005.0 1005.0 0.0
28/08:30pm 11.4 8.4 9.3 87 1.1 E 15 19 8 10 1005.7 1005.7 0.0
28/08:00pm 12.2 7.9 9.4 83 1.4 ENE 22 28 12 15 1005.9 1005.9 0.0
28/07:30pm 12.8 8.2 9.8 82 1.5 NE 24 28 13 15 1006.0 1006.0 0.0
28/07:00pm 12.7 8.4 9.3 80 1.7 NE 22 26 12 14 1006.0 1006.0 0.0
28/06:30pm 12.9 8.9 9.2 78 1.9 NE 20 24 11 13 1005.6 1005.6 0.0
28/06:00pm 12.9 9.5 9.2 78 1.9 NNE 17 20 9 11 1005.5 1005.5 0.0
28/05:30pm 13.0 9.7 9.6 80 1.7 NE 17 20 9 11 1005.5 1005.5 0.0
28/05:00pm 13.2 9.9 9.5 78 1.9 NNE 17 20 9 11 1005.8 1005.8 0.0
28/04:30pm 13.6 9.9 10.0 79 1.9 N 20 22 11 12 1006.1 1006.1 0.0
28/04:00pm 14.0 10.4 10.0 77 2.1 N 19 20 10 11 1005.6 1005.6 0.0
28/03:30pm 13.9 11.0 9.7 76 2.2 N 15 17 8 9 1005.5 1005.5 0.0
28/03:00pm 13.7 11.3 9.9 78 2.0 N 13 15 7 8 1006.2 1006.2 0.0
28/02:30pm 14.5 11.7 10.1 75 2.3 N 15 19 8 10 1006.9 1006.9 0.0
28/02:00pm 14.3 10.9 9.3 72 2.6 N 17 20 9 11 1007.5 1007.5 0.0
28/01:30pm 14.2 10.9 9.4 73 2.5 N 17 20 9 11 1008.0 1008.0 0.0
28/01:00pm 14.2 10.5 9.6 74 2.4 N 19 20 10 11 1008.2 1008.2 0.0
28/12:30pm 13.8 10.2 9.8 77 2.1 N 19 20 10 11 1008.6 1008.6 0.0
28/12:00pm 13.2 9.8 9.3 77 2.0 NNE 17 19 9 10 1008.8 1008.8 0.0
28/11:30am 13.4 10.1 9.5 77 2.0 N 17 20 9 11 1009.3 1009.3 0.0
28/11:00am 12.9 9.9 9.2 78 1.9 NNE 15 17 8 9 1009.6 1009.6 0.0
28/10:30am 14.1 11.4 10.5 79 1.9 N 15 15 8 8 1009.8 1009.8 0.0
28/10:00am 13.6 11.8 9.3 75 2.2 N 9 11 5 6 1010.0 1010.0 0.0
28/09:30am 13.6 12.0 8.9 73 2.4 NNW 7 9 4 5 1010.2 1010.2 0.0
28/09:00am 13.5 11.7 9.4 76 2.1 NW 9 9 5 5 1010.4 1010.4 1.2
28/08:30am 13.8 12.1 9.8 77 2.1 NW 9 11 5 6 1010.5 1010.5 1.2
28/08:00am 12.7 10.1 9.3 80 1.7 WNW 13 15 7 8 1010.6 1010.6 1.2
28/07:30am 11.9 8.5 9.1 83 1.4 NW 17 19 9 10 1010.7 1010.7 1.2
28/07:00am 11.7 8.3 9.1 84 1.3 NW 17 20 9 11 1010.5 1010.5 1.2
28/06:30am 11.6 8.2 9.2 85 1.2 WNW 17 19 9 10 1010.3 1010.3 1.2
28/06:00am 11.5 8.1 9.2 86 1.2 WNW 17 19 9 10 1010.0 1010.0 1.2
28/05:30am 11.4 8.3 9.0 85 1.2 W 15 17 8 9 1009.7 1009.7 1.2
28/05:00am 11.7 8.0 9.4 86 1.2 W 19 22 10 12 1009.5 1009.5 1.2
28/04:30am 11.8 6.8 9.5 86 1.2 W 26 30 14 16 1009.4 1009.4 1.2
28/04:00am 11.6 7.0 9.5 87 1.1 WNW 24 28 13 15 1009.2 1009.2 1.2
28/03:30am 11.4 7.3 10.1 92 0.7 NW 22 26 12 14 1009.2 1009.2 1.2
28/03:00am 11.3 7.8 10.2 93 0.6 W 19 22 10 12 1009.2 1009.2 1.0
28/02:30am 11.4 9.1 10.3 93 0.6 W 13 17 7 9 1009.1 1009.1 0.6
28/02:00am 11.3 8.2 10.4 94 0.5 W 17 20 9 11 1009.4 1009.4 0.4
28/01:30am 11.3 7.1 9.6 89 0.9 W 22 24 12 13 1009.6 1009.6 0.0
28/01:00am 11.7 6.9 8.7 82 1.5 W 24 28 13 15 1009.8 1009.8 0.0
28/12:30am 11.7 7.2 8.6 81 1.5 W 22 26 12 14 1009.8 1009.8 0.0
28/12:00am 11.7 5.6 8.2 79 1.7 W 30 35 16 19 1009.8 1009.8 0.0
 
Date/Time
EST
Temp
°C
App
Temp
°C
Dew
Point
°C
Rel
Hum
%
Delta-T
°C
Wind Press
QNH
hPa
Press
MSL
hPa
Rain since
9am
mm
Dir  Spd
km/h
Gust
km/h
Spd
kts
Gust
kts
27/11:30pm 11.8 4.7 8.1 78 1.8 W 35 39 19 21 1009.6 1009.6 0.0
27/11:00pm 11.8 4.6 7.7 76 2.0 W 35 43 19 23 1009.5 1009.5 0.0
27/10:30pm 11.8 4.8 8.5 80 1.6 W 35 39 19 21 1009.3 1009.3 0.0
27/10:00pm 12.1 4.5 8.9 81 1.6 W 39 43 21 23 1009.1 1009.1 0.0
27/09:30pm 12.3 5.2 9.5 83 1.4 W 37 43 20 23 1009.2 1009.2 0.0
27/09:00pm 12.4 5.6 9.4 82 1.5 W 35 41 19 22 1009.1 1009.1 0.0
27/08:30pm 12.7 6.4 9.7 82 1.5 W 33 39 18 21 1009.1 1009.1 0.0
27/08:00pm 12.6 7.4 10.3 86 1.2 WNW 28 32 15 17 1009.1 1009.1 0.0
27/07:30pm 12.3 7.8 9.9 85 1.2 WNW 24 28 13 15 1009.1 1009.1 0.0
27/07:00pm 12.3 6.5 9.5 83 1.4 NW 30 35 16 19 1009.0 1009.0 0.0
27/06:30pm 12.3 6.0 9.1 81 1.6 WNW 32 33 17 18 1009.0 1009.0 0.0
27/06:00pm 12.5 6.9 8.6 77 1.9 WNW 28 32 15 17 1008.8 1008.8 0.0
27/05:30pm 12.8 7.5 8.5 75 2.1 WNW 26 32 14 17 1008.6 1008.6 0.0
27/05:00pm 13.4 8.7 9.3 76 2.1 WNW 24 28 13 15 1008.5 1008.5 0.0
27/04:30pm 13.7 7.9 9.4 75 2.2 WNW 30 32 16 17 1008.4 1008.4 0.0
27/04:00pm 14.4 9.7 9.4 72 2.6 NW 24 30 13 16 1008.4 1008.4 0.0
27/03:30pm 14.2 9.5 9.4 73 2.5 NNW 24 28 13 15 1008.2 1008.2 0.0
27/03:00pm 14.3 10.0 9.5 73 2.5 NNW 22 26 12 14 1008.1 1008.1 0.0
27/02:30pm 14.5 10.9 9.9 74 2.4 NNW 19 22 10 12 1008.3 1008.3 0.0
27/02:00pm 14.4 11.0 9.0 70 2.8 NNW 17 19 9 10 1008.3 1008.3 0.0
27/01:30pm 14.2 10.8 9.2 72 2.5 NNW 17 20 9 11 1008.5 1008.5 0.0
27/01:00pm 15.0 12.6 10.2 73 2.5 NNW 13 17 7 9 1008.4 1008.4 0.0
27/12:30pm 13.8 10.4 9.0 73 2.4 NNW 17 20 9 11 1008.6 1008.6 0.0
27/12:00pm 14.3 10.9 9.3 72 2.6 NNW 17 19 9 10 1008.5 1008.5 0.0
27/11:30am 14.1 11.1 9.1 72 2.5 NNW 15 17 8 9 1008.6 1008.6 0.0
27/11:00am 13.8 11.4 8.6 71 2.6 NNW 11 13 6 7 1008.9 1008.9 0.0
27/10:30am 13.7 11.3 8.7 72 2.5 NNW 11 13 6 7 1008.9 1008.9 0.0
27/10:00am 13.3 11.6 8.4 72 2.4 N 7 7 4 4 1008.8 1008.8 0.0
27/09:30am 11.6 10.1 8.5 81 1.5 SSW 6 9 3 5 1008.9 1008.9 0.0
27/09:00am 10.9 8.0 8.3 84 1.3 S 13 13 7 7 1008.7 1008.7 0.0
27/08:30am 10.2 6.5 8.0 86 1.1 S 17 20 9 11 1008.5 1008.5 0.0
27/08:00am 9.3 5.1 7.6 89 0.8 S 19 22 10 12 1008.5 1008.5 0.0
27/07:30am 8.4 4.6 7.5 94 0.4 SSE 17 20 9 11 1008.3 1008.3 0.0
27/07:00am 8.0 3.7 7.2 95 0.4 SSE 19 22 10 12 1008.1 1008.1 0.0
27/06:30am 7.6 3.1 7.0 96 0.3 SSE 20 24 11 13 1007.8 1007.8 0.0
27/06:00am 7.5 3.2 6.9 96 0.3 SSE 19 22 10 12 1007.6 1007.6 0.0
27/05:30am 7.4 3.8 6.8 96 0.3 SSE 15 19 8 10 1007.6 1007.6 0.0
27/05:00am 7.4 3.4 6.8 96 0.3 SSE 17 20 9 11 1007.5 1007.5 0.0
27/04:30am 7.7 3.8 7.0 95 0.3 SSE 17 20 9 11 1007.5 1007.5 0.0
27/04:00am 8.2 4.4 7.6 96 0.3 SSE 17 20 9 11 1007.5 1007.5 0.0
27/03:30am 7.9 4.8 7.3 96 0.3 SSE 13 15 7 8 1007.3 1007.3 0.0
27/03:00am 8.1 5.0 7.3 95 0.4 SSE 13 15 7 8 1007.5 1007.5 0.0
27/02:30am 8.3 5.3 7.7 96 0.3 SSE 13 17 7 9 1007.8 1007.8 0.0
27/02:00am 8.0 4.5 7.4 96 0.3 SSE 15 17 8 9 1008.1 1008.1 0.0
27/01:30am 8.1 4.6 7.3 95 0.4 SSE 15 17 8 9 1008.3 1008.3 0.0
27/01:00am 8.0 4.5 7.1 94 0.4 SSE 15 17 8 9 1008.5 1008.5 0.0
27/12:30am 8.1 4.9 7.0 93 0.5 SE 13 15 7 8 1008.7 1008.7 0.0
27/12:00am 8.3 5.2 7.2 93 0.5 SSE 13 13 7 7 1008.9 1008.9 0.0
 
Date/Time
EST
Temp
°C
App
Temp
°C
Dew
Point
°C
Rel
Hum
%
Delta-T
°C
Wind Press
QNH
hPa
Press
MSL
hPa
Rain since
9am
mm
Dir  Spd
km/h
Gust
km/h
Spd
kts
Gust
kts
26/11:30pm 8.6 5.8 7.1 90 0.7 SE 11 13 6 7 1009.1 1009.1 0.0
26/11:00pm 8.8 6.4 6.9 88 0.9 SE 9 11 5 6 1009.3 1009.3 0.0
26/10:30pm 9.3 6.2 7.3 87 0.9 ESE 13 13 7 7 1009.5 1009.5 0.0
26/10:00pm 9.6 7.3 7.4 86 1.0 ESE 9 13 5 7 1009.7 1009.7 0.0

Other Formats:

Comma delimited format used in spreadsheet applications
http://www.bom.gov.au/fwo/IDT60801/IDT60801.95964.axf

JavaScript Object Notation format (JSON) in row-major order
http://www.bom.gov.au/fwo/IDT60801/IDT60801.95964.json